Time;durP1;ratioP1;P1;durP2;ratioP2;P2;SDS_P1;SDS_P2;PMS_P1;PMS_P2;Temp;Humidity;BMP_temperature;BMP_pressure;BME280_temperature;BME280_humidity;BME280_pressure;Samples;Min_cycle;Max_cycle;Signal;HPM_P1;HPM_P2
2023/11/07 00:00:31;;;;;;;25.15;15.35;;;12.50;99.90;;;;;;5008054;28;20121;-74
2023/11/07 00:02:58;;;;;;;27.77;16.95;;;12.40;99.90;;;;;;5018694;28;20038;-74
2023/11/07 00:05:25;;;;;;;30.38;18.60;;;12.40;99.90;;;;;;5016646;28;20555;-76
2023/11/07 00:07:52;;;;;;;30.20;16.35;;;12.40;99.90;;;;;;5022109;28;20404;-74
2023/11/07 00:10:20;;;;;;;26.40;15.82;;;12.60;99.90;;;;;;5019627;28;20124;-73
2023/11/07 00:12:49;;;;;;;28.77;15.48;;;12.40;99.90;;;;;;5014969;28;20034;-73
2023/11/07 00:15:18;;;;;;;25.23;15.35;;;12.40;99.90;;;;;;5016544;28;20061;-73
2023/11/07 00:17:46;;;;;;;25.52;14.80;;;12.40;99.90;;;;;;5018343;28;20038;-73
2023/11/07 00:20:14;;;;;;;20.10;13.02;;;12.30;99.90;;;;;;5015722;28;20046;-73
2023/11/07 00:22:44;;;;;;;16.25;11.75;;;11.90;99.90;;;;;;5014462;28;20054;-76
2023/11/07 00:25:11;;;;;;;23.10;11.32;;;12.00;99.90;;;;;;5020412;28;20042;-76
2023/11/07 00:27:39;;;;;;;21.45;13.50;;;12.10;99.90;;;;;;5016094;28;20038;-75
2023/11/07 00:30:07;;;;;;;19.88;13.40;;;12.20;99.90;;;;;;5018443;28;20113;-73
2023/11/07 00:32:34;;;;;;;25.52;14.00;;;12.20;99.90;;;;;;5020869;28;20460;-76
2023/11/07 00:35:02;;;;;;;21.60;13.20;;;12.30;99.90;;;;;;5015540;28;20404;-74
2023/11/07 00:37:30;;;;;;;25.90;13.82;;;12.20;99.90;;;;;;5018561;28;20045;-73
2023/11/07 00:39:57;;;;;;;23.30;13.73;;;12.20;99.90;;;;;;5018077;28;20045;-76
2023/11/07 00:42:24;;;;;;;22.58;13.32;;;12.10;99.90;;;;;;5017760;28;20046;-79
2023/11/07 00:44:51;;;;;;;22.25;12.63;;;12.10;99.90;;;;;;5022547;28;20087;-74
2023/11/07 00:47:19;;;;;;;23.55;11.73;;;11.90;99.90;;;;;;5020629;28;20049;-75
2023/11/07 00:49:46;;;;;;;31.90;12.18;;;12.10;99.90;;;;;;5015469;28;20037;-75
2023/11/07 00:52:13;;;;;;;21.15;11.23;;;12.10;99.90;;;;;;5017044;28;20037;-73
2023/11/07 00:54:40;;;;;;;20.10;11.13;;;12.00;99.90;;;;;;5020055;28;20045;-78
2023/11/07 00:57:09;;;;;;;16.15;10.20;;;11.90;99.90;;;;;;5022443;28;20062;-75
2023/11/07 00:59:36;;;;;;;15.10;8.63;;;12.00;99.90;;;;;;5022288;28;20120;-76
2023/11/07 01:02:05;;;;;;;12.27;7.85;;;11.90;99.90;;;;;;5022375;28;20125;-74
2023/11/07 01:04:33;;;;;;;10.55;6.97;;;11.60;99.90;;;;;;5025680;28;20038;-76
2023/11/07 01:07:00;;;;;;;14.38;6.88;;;11.20;99.90;;;;;;5017329;28;20038;-74
2023/11/07 01:09:27;;;;;;;12.45;6.82;;;11.00;99.90;;;;;;5011854;28;20053;-79
2023/11/07 01:11:55;;;;;;;10.95;6.75;;;10.90;99.90;;;;;;5014499;28;20041;-72
2023/11/07 01:14:24;;;;;;;10.45;7.15;;;11.10;99.90;;;;;;5020988;28;20403;-74
2023/11/07 01:16:51;;;;;;;20.58;7.45;;;11.30;99.90;;;;;;5016092;28;20084;-77
2023/11/07 01:19:20;;;;;;;12.25;7.10;;;11.30;99.90;;;;;;5019867;28;20046;-75
2023/11/07 01:21:48;;;;;;;14.87;8.27;;;11.20;99.90;;;;;;5020136;28;20040;-72
2023/11/07 01:24:15;;;;;;;12.60;8.00;;;11.20;99.90;;;;;;5020997;28;20052;-75
2023/11/07 01:26:42;;;;;;;13.93;8.35;;;11.30;99.90;;;;;;5022729;28;20045;-73
2023/11/07 01:29:10;;;;;;;11.90;8.98;;;11.50;99.90;;;;;;5015907;28;20038;-73
2023/11/07 01:31:37;;;;;;;17.77;9.70;;;11.70;99.90;;;;;;5023363;28;20040;-76
2023/11/07 01:34:05;;;;;;;17.25;10.23;;;11.70;99.90;;;;;;5017601;28;20038;-73
2023/11/07 01:36:32;;;;;;;14.70;9.48;;;11.70;99.90;;;;;;5017166;28;20053;-77
2023/11/07 01:39:00;;;;;;;23.13;10.57;;;11.70;99.90;;;;;;5019150;28;20475;-75
2023/11/07 01:41:27;;;;;;;18.85;11.63;;;11.70;99.90;;;;;;5019448;28;20041;-75
2023/11/07 01:43:54;;;;;;;17.50;11.73;;;11.70;99.90;;;;;;5015764;28;20108;-73
2023/11/07 01:46:22;;;;;;;19.63;12.85;;;11.50;99.90;;;;;;5026440;28;20107;-76
2023/11/07 01:48:49;;;;;;;18.17;12.25;;;11.40;99.90;;;;;;5012566;28;20374;-74
2023/11/07 01:51:17;;;;;;;25.80;13.82;;;11.50;99.90;;;;;;5021249;28;20088;-76
2023/11/07 01:53:46;;;;;;;21.23;13.10;;;11.40;99.90;;;;;;5015001;28;20096;-72
2023/11/07 01:56:14;;;;;;;25.00;14.75;;;11.40;99.90;;;;;;5014886;28;20436;-78
2023/11/07 01:58:41;;;;;;;22.83;13.20;;;11.30;99.90;;;;;;5023103;28;20042;-76
2023/11/07 02:01:09;;;;;;;20.23;13.63;;;11.20;99.90;;;;;;5020939;28;20033;-79
2023/11/07 02:03:38;;;;;;;26.15;14.43;;;11.10;99.90;;;;;;5021223;28;20433;-76
2023/11/07 02:06:07;;;;;;;24.90;13.18;;;11.10;99.90;;;;;;5020497;28;20041;-78
2023/11/07 02:08:34;;;;;;;27.13;14.05;;;11.00;99.90;;;;;;5022145;28;20042;-78
2023/11/07 02:11:02;;;;;;;24.85;15.05;;;10.90;99.90;;;;;;5015324;28;20503;-73
2023/11/07 02:13:29;;;;;;;21.10;13.00;;;11.00;99.90;;;;;;5022295;28;20452;-72
2023/11/07 02:15:56;;;;;;;24.40;13.80;;;11.00;99.90;;;;;;5018788;28;20045;-76
2023/11/07 02:18:23;;;;;;;23.00;12.00;;;11.00;99.90;;;;;;5026258;28;20045;-78
2023/11/07 02:20:51;;;;;;;24.70;12.55;;;11.00;99.90;;;;;;5020088;28;20358;-73
2023/11/07 02:23:29;;;;;;;21.42;12.77;;;11.10;99.90;;;;;;5020588;28;20463;-77
2023/11/07 02:25:56;;;;;;;21.83;12.18;;;10.90;99.90;;;;;;5019651;28;20046;-76
2023/11/07 02:28:24;;;;;;;23.17;12.98;;;10.20;99.90;;;;;;5020840;28;20119;-75
2023/11/07 02:30:51;;;;;;;20.38;12.43;;;10.10;99.90;;;;;;5021422;28;20441;-74
2023/11/07 02:33:20;;;;;;;20.02;11.45;;;10.40;99.90;;;;;;5022306;28;20386;-79
2023/11/07 02:35:48;;;;;;;17.50;11.18;;;10.50;99.90;;;;;;5016703;28;20536;-78
2023/11/07 02:38:16;;;;;;;14.65;9.60;;;10.60;99.90;;;;;;5021159;28;20163;-77
2023/11/07 02:40:44;;;;;;;17.35;10.55;;;10.50;99.90;;;;;;5024814;28;20079;-78
2023/11/07 02:43:11;;;;;;;18.83;10.15;;;10.70;99.90;;;;;;5020625;28;20416;-73
2023/11/07 02:45:38;;;;;;;17.85;10.77;;;10.90;99.90;;;;;;5022381;28;20419;-77
2023/11/07 02:48:06;;;;;;;18.70;11.38;;;10.90;99.90;;;;;;5013172;28;20065;-77
2023/11/07 02:50:33;;;;;;;20.10;10.65;;;10.80;99.90;;;;;;5021269;28;20051;-77
2023/11/07 02:53:01;;;;;;;15.50;10.15;;;10.80;99.90;;;;;;5025056;28;20513;-75
2023/11/07 02:55:28;;;;;;;17.48;11.30;;;10.80;99.90;;;;;;5028560;28;20128;-77
2023/11/07 02:57:56;;;;;;;18.17;10.70;;;10.80;99.90;;;;;;5033552;28;20045;-76
2023/11/07 03:00:23;;;;;;;22.90;10.90;;;10.60;99.90;;;;;;5028399;28;20065;-74
2023/11/07 03:02:51;;;;;;;16.23;10.18;;;10.80;99.90;;;;;;5033299;28;20494;-72
2023/11/07 03:05:18;;;;;;;15.07;10.35;;;10.70;99.90;;;;;;5026679;28;20048;-76
2023/11/07 03:07:45;;;;;;;18.02;11.25;;;10.70;99.90;;;;;;5026382;28;20131;-76
2023/11/07 03:10:13;;;;;;;18.85;10.95;;;10.70;99.90;;;;;;5033690;28;20037;-76
2023/11/07 03:12:40;;;;;;;17.25;10.68;;;10.70;99.90;;;;;;5034140;28;20056;-74
2023/11/07 03:15:07;;;;;;;19.35;10.18;;;10.70;99.90;;;;;;5012059;28;20049;-74
2023/11/07 03:17:35;;;;;;;15.13;9.85;;;10.60;99.90;;;;;;5018430;28;20068;-73
2023/11/07 03:20:06;;;;;;;16.80;9.95;;;10.60;99.90;;;;;;5028923;28;20392;-73
2023/11/07 03:22:33;;;;;;;18.23;9.43;;;10.50;99.90;;;;;;5027935;28;20429;-74
2023/11/07 03:25:01;;;;;;;22.50;12.32;;;10.50;99.90;;;;;;5023965;28;20274;-75
2023/11/07 03:27:28;;;;;;;29.20;14.27;;;10.40;99.90;;;;;;5027595;28;20038;-73
2023/11/07 03:29:56;;;;;;;25.90;16.15;;;10.40;99.90;;;;;;5029915;28;20370;-74
2023/11/07 03:32:24;;;;;;;29.15;16.08;;;10.50;99.90;;;;;;5025458;28;20040;-73
2023/11/07 03:34:51;;;;;;;27.50;15.80;;;10.50;99.90;;;;;;5028610;28;20511;-76
2023/11/07 03:37:18;;;;;;;25.73;14.98;;;10.40;99.90;;;;;;5030984;28;20393;-76
2023/11/07 03:39:45;;;;;;;25.23;14.45;;;10.40;99.90;;;;;;5025635;28;20049;-75
2023/11/07 03:42:13;;;;;;;21.25;13.18;;;10.40;99.90;;;;;;5034808;28;20069;-74
2023/11/07 03:44:40;;;;;;;22.88;13.38;;;10.50;99.90;;;;;;5026178;28;20049;-74
2023/11/07 03:47:07;;;;;;;23.20;12.75;;;10.40;99.90;;;;;;5020322;28;20042;-78
2023/11/07 03:49:35;;;;;;;20.08;12.95;;;10.50;99.90;;;;;;5037183;28;20041;-77
2023/11/07 03:52:03;;;;;;;19.17;11.60;;;10.40;99.90;;;;;;5030171;28;20037;-79
2023/11/07 03:54:30;;;;;;;22.10;12.80;;;10.20;99.90;;;;;;5033277;28;20145;-80
2023/11/07 03:56:59;;;;;;;22.30;12.70;;;10.30;99.90;;;;;;5025768;28;20076;-78
2023/11/07 03:59:26;;;;;;;22.80;12.10;;;10.40;99.90;;;;;;5008670;28;20049;-78
2023/11/07 04:01:55;;;;;;;21.45;10.77;;;10.30;99.90;;;;;;5025006;28;20106;-79
2023/11/07 04:04:23;;;;;;;19.50;11.38;;;10.30;99.90;;;;;;5023277;28;20115;-79
2023/11/07 04:06:50;;;;;;;18.35;10.88;;;10.30;99.90;;;;;;5013368;28;20042;-79
2023/11/07 04:09:19;;;;;;;16.60;10.55;;;10.20;99.90;;;;;;5025989;28;20186;-81
2023/11/07 04:11:46;;;;;;;17.90;11.20;;;10.20;99.90;;;;;;5025914;28;20037;-76
2023/11/07 04:14:17;;;;;;;20.60;10.88;;;10.30;99.90;;;;;;5031466;28;20051;-74
2023/11/07 04:16:45;;;;;;;18.48;11.15;;;10.20;99.90;;;;;;5031238;28;20044;-75
2023/11/07 04:19:12;;;;;;;15.07;10.40;;;10.10;99.90;;;;;;5032584;28;20069;-76
2023/11/07 04:21:40;;;;;;;18.38;10.73;;;10.10;99.90;;;;;;5030371;28;20138;-71
2023/11/07 04:24:07;;;;;;;16.48;8.63;;;10.00;99.90;;;;;;5018487;28;20045;-72
2023/11/07 04:26:34;;;;;;;13.82;7.68;;;10.00;99.90;;;;;;5032209;28;20539;-72
2023/11/07 04:29:04;;;;;;;11.20;6.97;;;10.10;99.90;;;;;;5024513;28;20493;-74
2023/11/07 04:31:31;;;;;;;10.68;6.70;;;10.20;99.90;;;;;;5034233;28;20095;-74
2023/11/07 04:33:58;;;;;;;9.15;5.95;;;10.20;99.90;;;;;;5027863;28;20052;-74
2023/11/07 04:36:25;;;;;;;10.07;6.40;;;10.10;99.90;;;;;;5035177;28;20037;-74
2023/11/07 04:38:53;;;;;;;11.50;7.35;;;10.10;99.90;;;;;;5031328;28;20030;-76
2023/11/07 04:41:20;;;;;;;18.27;7.82;;;10.20;99.90;;;;;;5007625;28;20104;-76
2023/11/07 04:43:48;;;;;;;12.52;8.45;;;10.10;99.90;;;;;;5019207;28;20434;-76
2023/11/07 04:46:15;;;;;;;13.43;7.68;;;10.10;99.90;;;;;;5027268;28;20041;-75
2023/11/07 04:48:42;;;;;;;11.30;7.20;;;10.10;99.90;;;;;;5025442;28;20041;-74
2023/11/07 04:51:27;;;;;;;8.38;5.55;;;9.50;99.90;;;;;;5028923;28;20033;-74
2023/11/07 04:53:56;;;;;;;7.60;5.63;;;9.20;99.90;;;;;;5033329;28;20055;-74
2023/11/07 04:56:23;;;;;;;8.77;6.18;;;9.00;99.90;;;;;;5030458;28;20124;-74
2023/11/07 04:58:50;;;;;;;7.20;5.70;;;9.10;99.90;;;;;;5030017;28;20112;-76
2023/11/07 05:01:25;;;;;;;10.75;6.22;;;9.10;99.90;;;;;;5023923;28;20069;-73
2023/11/07 05:03:53;;;;;;;10.25;6.45;;;9.20;99.90;;;;;;5011795;28;20042;-76
2023/11/07 05:06:21;;;;;;;11.52;6.07;;;9.20;99.90;;;;;;5017348;28;20378;-73
2023/11/07 05:08:48;;;;;;;16.33;6.30;;;9.00;99.90;;;;;;5029840;28;20037;-73
2023/11/07 05:11:18;;;;;;;12.95;6.10;;;9.00;99.90;;;;;;5031923;28;20120;-75
2023/11/07 05:13:46;;;;;;;10.88;6.03;;;9.10;99.90;;;;;;5033954;28;20095;-76
2023/11/07 05:16:13;;;;;;;9.30;5.80;;;9.30;99.90;;;;;;5029953;28;20127;-75
2023/11/07 05:18:40;;;;;;;10.10;6.63;;;9.40;99.90;;;;;;5037900;28;20492;-76
2023/11/07 05:21:08;;;;;;;7.85;6.15;;;9.40;99.90;;;;;;5031569;28;20130;-76
2023/11/07 05:23:35;;;;;;;9.88;6.45;;;9.70;99.90;;;;;;5037845;28;20047;-75
2023/11/07 05:26:03;;;;;;;11.82;6.78;;;9.70;99.90;;;;;;5027572;28;20038;-74
2023/11/07 05:28:30;;;;;;;9.75;6.82;;;9.80;99.90;;;;;;5028483;28;20049;-76
2023/11/07 05:30:57;;;;;;;13.18;6.25;;;9.80;99.90;;;;;;5031075;28;20033;-76
2023/11/07 05:33:25;;;;;;;10.43;6.80;;;9.90;99.90;;;;;;5031720;28;20075;-76
2023/11/07 05:35:52;;;;;;;14.63;7.40;;;10.00;99.90;;;;;;5019633;28;20042;-76
2023/11/07 05:38:20;;;;;;;13.95;7.57;;;10.00;99.90;;;;;;5007299;28;20045;-72
2023/11/07 05:40:48;;;;;;;10.70;6.80;;;10.00;99.90;;;;;;5028572;28;20041;-74
2023/11/07 05:43:16;;;;;;;9.77;6.57;;;10.10;99.90;;;;;;5022320;28;20049;-74
2023/11/07 05:45:44;;;;;;;17.20;7.60;;;10.10;99.90;;;;;;5019667;28;20034;-71
2023/11/07 05:48:11;;;;;;;10.80;7.13;;;9.80;99.90;;;;;;5012082;28;20053;-73
2023/11/07 05:50:39;;;;;;;15.55;9.98;;;9.90;99.90;;;;;;5026063;28;20366;-76
2023/11/07 05:53:08;;;;;;;20.88;12.50;;;9.90;99.90;;;;;;5033067;28;20054;-77
2023/11/07 05:55:35;;;;;;;28.50;13.85;;;10.00;99.90;;;;;;5017801;28;20038;-72
2023/11/07 05:58:02;;;;;;;23.77;14.23;;;10.00;99.90;;;;;;5032412;28;20448;-76
2023/11/07 06:00:30;;;;;;;31.67;15.57;;;10.10;99.90;;;;;;5027696;28;20042;-76
2023/11/07 06:02:57;;;;;;;21.63;12.98;;;9.90;99.90;;;;;;5031959;28;20631;-72
2023/11/07 06:05:24;;;;;;;64.00;37.35;;;9.90;99.90;;;;;;5031284;28;20088;-74
2023/11/07 06:07:55;;;;;;;94.28;49.47;;;9.90;99.90;;;;;;5034542;28;20459;-74
2023/11/07 06:10:22;;;;;;;179.38;87.90;;;9.90;99.90;;;;;;5033118;28;20057;-73
2023/11/07 06:12:50;;;;;;;99.10;53.88;;;10.10;99.90;;;;;;5033567;28;20041;-75
2023/11/07 06:15:18;;;;;;;24.23;17.85;;;10.10;99.90;;;;;;5031572;28;20042;-73
2023/11/07 06:17:47;;;;;;;27.23;14.20;;;9.80;99.90;;;;;;5018160;28;20088;-73
2023/11/07 06:20:18;;;;;;;17.73;10.63;;;9.80;99.90;;;;;;5010226;28;20046;-76
2023/11/07 06:22:45;;;;;;;;;;;9.90;99.90;;;;;;5034815;28;20104;-75
2023/11/07 06:25:15;;;;;;;11.30;8.35;;;10.00;99.90;;;;;;5022805;28;19920;-74
2023/11/07 06:27:42;;;;;;;14.25;8.82;;;10.10;99.90;;;;;;5032000;28;20412;-75
2023/11/07 06:30:10;;;;;;;13.38;8.75;;;10.00;99.90;;;;;;5022108;28;20038;-72
2023/11/07 06:32:37;;;;;;;17.38;10.23;;;10.00;99.90;;;;;;5030285;28;20045;-76
2023/11/07 06:35:06;;;;;;;18.52;9.40;;;10.20;99.90;;;;;;5024920;28;20041;-72
2023/11/07 06:37:33;;;;;;;95.28;51.33;;;10.30;99.90;;;;;;5023537;28;20045;-73
2023/11/07 06:40:20;;;;;;;112.43;62.00;;;10.50;99.90;;;;;;5023141;28;20037;-71
2023/11/07 06:42:48;;;;;;;18.38;15.05;;;10.60;99.90;;;;;;5031381;28;20029;-74
2023/11/07 06:45:15;;;;;;;16.48;10.27;;;10.60;99.90;;;;;;5027133;28;20046;-67
2023/11/07 06:47:44;;;;;;;23.55;11.00;;;10.60;99.90;;;;;;5021768;28;20040;-72
2023/11/07 06:50:14;;;;;;;15.80;10.15;;;10.60;99.90;;;;;;5023835;28;20049;-72
2023/11/07 06:52:48;;;;;;;14.40;8.43;;;10.70;99.90;;;;;;5023093;28;20136;-74
2023/11/07 06:55:15;;;;;;;14.27;9.18;;;10.80;99.90;;;;;;5026242;28;20057;-71
2023/11/07 06:57:43;;;;;;;11.43;7.13;;;10.90;99.90;;;;;;5025311;28;20079;-74
2023/11/07 07:00:10;;;;;;;14.02;7.97;;;10.70;99.90;;;;;;5026718;28;20436;-73
2023/11/07 07:02:40;;;;;;;12.18;6.70;;;10.70;99.90;;;;;;5028047;28;20353;-77
2023/11/07 07:05:12;;;;;;;14.95;7.75;;;10.80;99.90;;;;;;5031278;28;20405;-74
2023/11/07 07:07:41;;;;;;;14.02;7.78;;;10.80;99.90;;;;;;5028554;28;20048;-73
2023/11/07 07:10:10;;;;;;;15.55;7.90;;;10.80;99.90;;;;;;5026602;28;20076;-70
2023/11/07 07:12:38;;;;;;;10.68;7.68;;;10.90;99.90;;;;;;5027429;28;20034;-73
2023/11/07 07:15:06;;;;;;;19.55;9.15;;;11.10;99.90;;;;;;5024931;28;20449;-74
2023/11/07 07:17:34;;;;;;;20.58;10.10;;;11.30;99.90;;;;;;5012237;28;20054;-71
2023/11/07 07:20:03;;;;;;;17.42;9.88;;;11.40;99.90;;;;;;5032352;28;20033;-75
2023/11/07 07:22:35;;;;;;;19.90;11.32;;;11.40;99.90;;;;;;5024546;28;20064;-72
2023/11/07 07:25:05;;;;;;;17.67;9.70;;;11.50;99.90;;;;;;5032448;28;20068;-71
2023/11/07 07:27:34;;;;;;;11.27;8.02;;;11.50;99.90;;;;;;5027985;28;20056;-73
2023/11/07 07:30:02;;;;;;;12.75;9.05;;;11.50;99.90;;;;;;5033613;28;20033;-73
2023/11/07 07:32:30;;;;;;;9.80;7.00;;;11.50;99.90;;;;;;5028702;28;20029;-75
2023/11/07 07:34:57;;;;;;;11.32;7.22;;;11.70;99.90;;;;;;5033466;28;20036;-75
2023/11/07 07:37:25;;;;;;;11.70;7.25;;;11.80;99.90;;;;;;5030864;28;20034;-73
2023/11/07 07:39:52;;;;;;;16.23;6.93;;;12.00;99.90;;;;;;5037071;28;20566;-72
2023/11/07 07:42:21;;;;;;;12.80;7.57;;;12.10;99.90;;;;;;5028342;28;20052;-74
2023/11/07 07:44:50;;;;;;;11.15;7.20;;;12.30;99.90;;;;;;5016824;28;20390;-72
2023/11/07 07:47:18;;;;;;;14.38;7.30;;;12.50;99.90;;;;;;5032066;28;20043;-75
2023/11/07 07:49:46;;;;;;;11.57;7.05;;;12.60;99.90;;;;;;5035555;28;20040;-71
2023/11/07 07:52:13;;;;;;;10.98;6.97;;;12.70;99.90;;;;;;5032051;28;20041;-74
2023/11/07 07:54:43;;;;;;;12.23;7.30;;;13.00;99.90;;;;;;5021962;28;20119;-74
2023/11/07 07:57:31;;;;;;;17.73;7.50;;;13.10;99.90;;;;;;5010472;28;20048;-73
2023/11/07 07:59:58;;;;;;;16.73;6.20;;;13.20;99.90;;;;;;5029339;28;20076;-74
2023/11/07 08:02:25;;;;;;;13.02;6.72;;;13.30;99.90;;;;;;5032028;28;20712;-71
2023/11/07 08:04:53;;;;;;;12.32;7.28;;;13.00;99.90;;;;;;5027782;28;20484;-74
2023/11/07 08:07:21;;;;;;;14.27;6.78;;;12.70;99.90;;;;;;5032572;28;20068;-75
2023/11/07 08:09:49;;;;;;;14.63;7.68;;;12.90;99.90;;;;;;5033133;28;20122;-74
2023/11/07 08:12:17;;;;;;;14.00;7.70;;;12.80;99.90;;;;;;5036400;28;20033;-73
2023/11/07 08:14:46;;;;;;;12.30;7.07;;;12.90;99.90;;;;;;5022283;28;20044;-73
2023/11/07 08:17:14;;;;;;;17.55;7.38;;;13.00;99.90;;;;;;5022739;28;20034;-73
2023/11/07 08:19:41;;;;;;;14.90;7.68;;;13.40;99.90;;;;;;5025619;28;20045;-74
2023/11/07 08:22:09;;;;;;;13.43;8.05;;;13.70;99.90;;;;;;5029666;28;20400;-76
2023/11/07 08:24:36;;;;;;;14.18;7.53;;;14.00;99.90;;;;;;5024605;28;20042;-74
2023/11/07 08:27:03;;;;;;;13.75;6.60;;;14.20;99.90;;;;;;5032857;28;20052;-72
2023/11/07 08:29:31;;;;;;;14.05;6.65;;;14.30;99.90;;;;;;5032178;28;20123;-74
2023/11/07 08:31:58;;;;;;;10.80;6.97;;;14.50;99.90;;;;;;5041132;28;20056;-74
2023/11/07 08:34:25;;;;;;;11.35;6.38;;;14.50;99.90;;;;;;5028219;28;20486;-74
2023/11/07 08:36:53;;;;;;;11.13;6.75;;;14.80;99.90;;;;;;5031387;28;20049;-70
2023/11/07 08:39:34;;;;;;;11.23;6.88;;;15.00;99.90;;;;;;5037703;28;20045;-74
2023/11/07 08:42:02;;;;;;;18.33;8.45;;;15.00;99.90;;;;;;5035361;28;20076;-72
2023/11/07 08:44:30;;;;;;;22.00;9.38;;;15.20;99.90;;;;;;5031443;28;20037;-73
2023/11/07 08:46:57;;;;;;;10.10;6.90;;;15.20;99.90;;;;;;5027496;28;20401;-73
2023/11/07 08:49:24;;;;;;;10.93;6.15;;;15.30;99.90;;;;;;5032388;28;20075;-73
2023/11/07 08:51:52;;;;;;;11.10;5.80;;;15.30;99.90;;;;;;5025060;28;20131;-77
2023/11/07 08:54:19;;;;;;;9.20;5.20;;;15.30;99.90;;;;;;5029313;28;20054;-73
2023/11/07 08:56:49;;;;;;;10.40;5.93;;;15.30;99.90;;;;;;5025232;28;20034;-73
2023/11/07 08:59:20;;;;;;;17.30;6.38;;;15.70;99.90;;;;;;5027751;28;20040;-72
2023/11/07 09:01:47;;;;;;;10.50;6.20;;;16.00;99.90;;;;;;5036551;28;20048;-74
2023/11/07 09:04:15;;;;;;;10.40;5.70;;;16.20;99.90;;;;;;5031089;28;20508;-74
2023/11/07 09:06:42;;;;;;;11.02;6.43;;;16.10;99.90;;;;;;5032993;28;20037;-74
2023/11/07 09:09:14;;;;;;;11.70;6.07;;;16.30;99.90;;;;;;5033190;28;20048;-74
2023/11/07 09:11:43;;;;;;;13.85;6.03;;;16.50;99.90;;;;;;5031727;28;20049;-75
2023/11/07 09:14:12;;;;;;;11.45;6.10;;;16.70;99.90;;;;;;5035772;28;20053;-76
2023/11/07 09:16:39;;;;;;;11.52;5.40;;;16.70;99.80;;;;;;5033159;28;20136;-74
2023/11/07 09:19:06;;;;;;;10.32;5.88;;;16.40;99.90;;;;;;5031920;28;20045;-73
2023/11/07 09:21:33;;;;;;;13.75;6.55;;;16.60;99.90;;;;;;5034365;28;20095;-74
2023/11/07 09:24:01;;;;;;;14.93;5.40;;;16.90;99.80;;;;;;5024120;28;20444;-73
2023/11/07 09:26:28;;;;;;;11.90;5.35;;;17.10;99.10;;;;;;5026111;28;20037;-73
2023/11/07 09:28:56;;;;;;;8.98;5.53;;;17.00;98.60;;;;;;5036322;28;20043;-75
2023/11/07 09:31:23;;;;;;;12.30;5.60;;;17.00;98.10;;;;;;5030752;28;20041;-75
2023/11/07 09:33:50;;;;;;;13.95;5.20;;;17.10;98.10;;;;;;5027700;28;20037;-73
2023/11/07 09:36:18;;;;;;;9.80;4.90;;;17.30;97.80;;;;;;5029540;28;20046;-74
2023/11/07 09:38:46;;;;;;;18.27;5.22;;;17.50;97.60;;;;;;5028142;28;20512;-72
2023/11/07 09:41:19;;;;;;;9.88;5.18;;;17.60;96.60;;;;;;5026445;28;20128;-77
2023/11/07 09:43:47;;;;;;;8.68;5.00;;;17.60;96.60;;;;;;5029778;28;20060;-73
2023/11/07 09:46:15;;;;;;;12.73;4.93;;;17.70;96.50;;;;;;5035064;28;20123;-73
2023/11/07 09:48:45;;;;;;;12.30;5.55;;;17.80;96.10;;;;;;5026250;28;20060;-72
2023/11/07 09:51:14;;;;;;;12.07;6.30;;;17.90;95.70;;;;;;5008958;28;20053;-67
2023/11/07 09:53:46;;;;;;;15.57;4.97;;;18.10;96.80;;;;;;5026422;28;20046;-70
2023/11/07 09:56:13;;;;;;;11.13;5.47;;;18.20;96.10;;;;;;5027370;28;20287;-71
2023/11/07 09:58:47;;;;;;;12.77;5.80;;;18.60;95.70;;;;;;5028491;28;20045;-71
2023/11/07 10:01:14;;;;;;;14.98;9.07;;;18.90;95.40;;;;;;5025746;28;20038;-71
2023/11/07 10:03:48;;;;;;;10.52;6.72;;;18.80;94.80;;;;;;5029769;28;20435;-70
2023/11/07 10:06:17;;;;;;;11.57;5.68;;;19.00;95.40;;;;;;5025384;28;20092;-72
2023/11/07 10:08:44;;;;;;;13.30;5.72;;;19.00;94.10;;;;;;5016762;28;20563;-70
2023/11/07 10:11:13;;;;;;;12.02;5.30;;;19.40;94.10;;;;;;5034325;28;20382;-72
2023/11/07 10:14:08;;;;;;;10.05;5.10;;;19.40;93.80;;;;;;5032429;28;20033;-72
2023/11/07 10:16:37;;;;;;;15.38;5.60;;;19.60;94.10;;;;;;5031900;28;20445;-72
2023/11/07 10:19:05;;;;;;;11.27;4.55;;;20.00;93.20;;;;;;5037494;28;20089;-72
2023/11/07 10:21:34;;;;;;;12.20;4.78;;;20.10;92.10;;;;;;5024547;28;20034;-72
2023/11/07 10:24:02;;;;;;;13.65;4.85;;;19.90;91.40;;;;;;5026453;28;20117;-74
2023/11/07 10:26:30;;;;;;;11.68;4.25;;;19.90;91.50;;;;;;5030840;28;20073;-71
2023/11/07 10:29:14;;;;;;;13.45;4.65;;;19.70;91.30;;;;;;5027696;28;20034;-72
2023/11/07 10:32:04;;;;;;;9.85;4.65;;;19.90;90.70;;;;;;5034386;28;20048;-73
2023/11/07 10:34:32;;;;;;;9.68;4.25;;;20.10;90.50;;;;;;5017154;28;20042;-71
2023/11/07 10:36:59;;;;;;;9.60;3.70;;;20.00;90.40;;;;;;5026657;28;20037;-71
2023/11/07 10:39:28;;;;;;;11.82;4.47;;;20.20;90.00;;;;;;5028095;28;20050;-72
2023/11/07 10:41:56;;;;;;;12.40;4.47;;;20.50;90.20;;;;;;5027806;28;20038;-70
2023/11/07 10:44:25;;;;;;;7.88;3.90;;;20.50;88.50;;;;;;5021602;28;20664;-72
2023/11/07 10:46:54;;;;;;;8.68;4.15;;;21.40;86.50;;;;;;5027811;28;20041;-71
2023/11/07 10:49:22;;;;;;;10.60;4.63;;;21.80;84.90;;;;;;5031621;28;20049;-70
2023/11/07 10:51:49;;;;;;;12.05;4.80;;;22.40;83.20;;;;;;5035899;28;20036;-72
2023/11/07 10:54:20;;;;;;;13.07;4.47;;;22.50;80.50;;;;;;5028728;28;20053;-73
2023/11/07 10:56:51;;;;;;;11.90;5.38;;;22.80;79.00;;;;;;5033865;28;20048;-72
2023/11/07 10:59:20;;;;;;;12.27;4.32;;;22.40;79.10;;;;;;5031842;28;20052;-71
2023/11/07 11:01:50;;;;;;;10.83;4.77;;;22.00;78.80;;;;;;5035891;28;20060;-72
2023/11/07 11:04:30;;;;;;;14.23;4.68;;;21.80;79.70;;;;;;5033884;28;20045;-72
2023/11/07 11:07:04;;;;;;;;;;;21.60;79.50;;;;;;5038210;28;20041;-73
2023/11/07 11:09:33;;;;;;;11.30;4.88;;;21.60;80.50;;;;;;5027922;28;19925;-73
2023/11/07 11:12:03;;;;;;;17.75;5.18;;;22.20;79.90;;;;;;5009216;28;20046;-73
2023/11/07 11:14:31;;;;;;;15.35;5.32;;;21.90;77.70;;;;;;5027209;28;20037;-73
2023/11/07 11:17:29;;;;;;;10.05;4.00;;;21.00;78.20;;;;;;5003930;28;20140;-74
2023/11/07 11:20:22;;;;;;;15.27;5.00;;;21.50;78.00;;;;;;5005477;28;20041;-71
2023/11/07 11:23:41;;;;;;;15.25;4.93;;;22.00;77.50;;;;;;5024434;28;20671;-71
2023/11/07 11:26:17;;;;;;;13.20;5.30;;;22.30;76.20;;;;;;4994919;28;20046;-72
2023/11/07 11:28:45;;;;;;;9.85;4.55;;;21.70;76.20;;;;;;5006245;28;20046;-74
2023/11/07 11:31:21;;;;;;;13.90;4.45;;;22.60;77.10;;;;;;5028590;28;20052;-71
2023/11/07 11:34:10;;;;;;;11.50;4.13;;;25.20;73.80;;;;;;5018322;28;20381;-73
2023/11/07 11:36:43;;;;;;;8.98;4.15;;;26.40;71.30;;;;;;5020848;28;20045;-71
2023/11/07 11:39:29;;;;;;;15.60;3.67;;;28.20;67.80;;;;;;5031732;28;20045;-73
2023/11/07 11:42:00;;;;;;;8.05;3.97;;;29.40;64.10;;;;;;5027682;28;20037;-74
2023/11/07 11:44:29;;;;;;;9.77;4.20;;;30.10;60.30;;;;;;5025723;28;20132;-74
2023/11/07 11:46:57;;;;;;;11.32;3.35;;;29.50;60.60;;;;;;5001424;28;20045;-72
2023/11/07 11:49:24;;;;;;;8.65;3.70;;;30.40;58.50;;;;;;5032622;28;20041;-74
2023/11/07 11:51:54;;;;;;;12.25;3.60;;;30.20;56.40;;;;;;5035940;28;20401;-74
2023/11/07 11:54:27;;;;;;;14.10;5.22;;;30.00;55.80;;;;;;5022433;28;20056;-72
2023/11/07 11:56:58;;;;;;;11.98;4.40;;;30.00;55.20;;;;;;5030696;28;20502;-73
2023/11/07 11:59:56;;;;;;;13.52;4.30;;;31.60;54.10;;;;;;5030369;28;20405;-74
2023/11/07 12:02:36;;;;;;;9.00;3.35;;;32.50;52.30;;;;;;5001243;28;20041;-72
2023/11/07 12:05:17;;;;;;;9.38;3.00;;;32.50;50.70;;;;;;5026433;28;20103;-71
2023/11/07 12:07:47;;;;;;;9.63;3.28;;;33.10;49.80;;;;;;5012531;28;20126;-72
2023/11/07 12:10:17;;;;;;;11.60;2.72;;;33.10;48.70;;;;;;5019571;28;20486;-72
2023/11/07 12:12:55;;;;;;;11.02;2.92;;;32.30;48.60;;;;;;5023489;28;20041;-70
2023/11/07 12:15:25;;;;;;;9.63;2.63;;;32.50;48.80;;;;;;5023112;28;20041;-73
2023/11/07 12:17:53;;;;;;;8.70;2.63;;;32.50;48.10;;;;;;5001607;28;20053;-70
2023/11/07 12:20:21;;;;;;;14.27;2.95;;;32.30;48.00;;;;;;5026940;28;20319;-72
2023/11/07 12:22:49;;;;;;;9.63;2.50;;;31.00;48.70;;;;;;5036032;28;20041;-69
2023/11/07 12:25:19;;;;;;;9.32;3.15;;;30.80;48.70;;;;;;5029868;28;20046;-72
2023/11/07 12:27:56;;;;;;;10.27;2.90;;;31.00;48.40;;;;;;5031552;28;20042;-70
2023/11/07 12:30:23;;;;;;;8.68;2.85;;;31.90;48.10;;;;;;5025410;28;20048;-69
2023/11/07 12:33:06;;;;;;;9.48;2.72;;;31.70;47.50;;;;;;5021374;28;20038;-69
2023/11/07 12:35:34;;;;;;;8.93;2.78;;;31.20;48.00;;;;;;5022356;28;20047;-71
2023/11/07 12:38:09;;;;;;;8.98;2.47;;;31.90;47.90;;;;;;5020971;28;20120;-70
2023/11/07 12:40:44;;;;;;;6.95;2.40;;;31.20;47.60;;;;;;5044028;28;20038;-70
2023/11/07 12:43:11;;;;;;;6.78;2.25;;;29.40;47.30;;;;;;5033655;28;20091;-70
2023/11/07 12:45:39;;;;;;;8.80;2.78;;;27.10;49.70;;;;;;5029542;28;20063;-73